sensor_id;sensor_type;location;lat;lon;timestamp;P1;durP1;ratioP1;P2;durP2;ratioP2
84315;SDS011;74496;52.236;5.164;2024-01-06T00:02:01;9.57;;;4.85;;
84315;SDS011;74496;52.236;5.164;2024-01-06T00:04:28;5.80;;;4.63;;
84315;SDS011;74496;52.236;5.164;2024-01-06T00:06:55;4.70;;;4.30;;
84315;SDS011;74496;52.236;5.164;2024-01-06T00:09:21;4.80;;;4.30;;
84315;SDS011;74496;52.236;5.164;2024-01-06T00:11:48;7.35;;;4.72;;
84315;SDS011;74496;52.236;5.164;2024-01-06T00:14:15;7.63;;;4.43;;
84315;SDS011;74496;52.236;5.164;2024-01-06T00:16:43;4.15;;;3.85;;
84315;SDS011;74496;52.236;5.164;2024-01-06T00:19:10;3.95;;;3.65;;
84315;SDS011;74496;52.236;5.164;2024-01-06T00:21:37;3.40;;;3.10;;
84315;SDS011;74496;52.236;5.164;2024-01-06T00:24:04;3.20;;;3.00;;
84315;SDS011;74496;52.236;5.164;2024-01-06T00:26:31;2.70;;;2.50;;
84315;SDS011;74496;52.236;5.164;2024-01-06T00:28:58;3.60;;;3.30;;
84315;SDS011;74496;52.236;5.164;2024-01-06T00:31:24;3.10;;;2.90;;
84315;SDS011;74496;52.236;5.164;2024-01-06T00:33:52;3.03;;;2.83;;
84315;SDS011;74496;52.236;5.164;2024-01-06T00:36:19;2.53;;;2.30;;
84315;SDS011;74496;52.236;5.164;2024-01-06T00:38:46;2.35;;;2.15;;
84315;SDS011;74496;52.236;5.164;2024-01-06T00:41:13;2.08;;;1.98;;
84315;SDS011;74496;52.236;5.164;2024-01-06T00:43:40;2.60;;;2.42;;
84315;SDS011;74496;52.236;5.164;2024-01-06T00:46:06;2.17;;;1.77;;
84315;SDS011;74496;52.236;5.164;2024-01-06T00:48:33;2.17;;;1.98;;
84315;SDS011;74496;52.236;5.164;2024-01-06T00:51:01;2.05;;;1.92;;
84315;SDS011;74496;52.236;5.164;2024-01-06T00:53:31;3.35;;;2.00;;
84315;SDS011;74496;52.236;5.164;2024-01-06T00:56:00;2.42;;;2.30;;
84315;SDS011;74496;52.236;5.164;2024-01-06T00:58:27;2.70;;;2.13;;
84315;SDS011;74496;52.236;5.164;2024-01-06T01:00:54;5.13;;;2.45;;
84315;SDS011;74496;52.236;5.164;2024-01-06T01:03:21;2.05;;;1.95;;
84315;SDS011;74496;52.236;5.164;2024-01-06T01:05:47;9.52;;;2.25;;
84315;SDS011;74496;52.236;5.164;2024-01-06T01:08:15;3.40;;;2.75;;
84315;SDS011;74496;52.236;5.164;2024-01-06T01:10:42;2.60;;;2.40;;
84315;SDS011;74496;52.236;5.164;2024-01-06T01:13:10;3.92;;;2.45;;
84315;SDS011;74496;52.236;5.164;2024-01-06T01:15:36;3.03;;;2.63;;
84315;SDS011;74496;52.236;5.164;2024-01-06T01:18:03;3.97;;;2.80;;
84315;SDS011;74496;52.236;5.164;2024-01-06T01:20:30;5.00;;;2.53;;
84315;SDS011;74496;52.236;5.164;2024-01-06T01:22:57;2.70;;;2.50;;
84315;SDS011;74496;52.236;5.164;2024-01-06T01:25:25;5.05;;;2.80;;
84315;SDS011;74496;52.236;5.164;2024-01-06T01:27:52;2.97;;;2.58;;
84315;SDS011;74496;52.236;5.164;2024-01-06T01:30:18;3.17;;;2.88;;
84315;SDS011;74496;52.236;5.164;2024-01-06T01:32:45;2.85;;;2.30;;
84315;SDS011;74496;52.236;5.164;2024-01-06T01:35:12;3.20;;;3.00;;
84315;SDS011;74496;52.236;5.164;2024-01-06T01:37:38;4.90;;;2.45;;
84315;SDS011;74496;52.236;5.164;2024-01-06T01:40:06;3.22;;;2.40;;
84315;SDS011;74496;52.236;5.164;2024-01-06T01:42:34;2.25;;;2.00;;
84315;SDS011;74496;52.236;5.164;2024-01-06T01:45:02;4.88;;;2.45;;
84315;SDS011;74496;52.236;5.164;2024-01-06T01:47:29;2.10;;;2.00;;
84315;SDS011;74496;52.236;5.164;2024-01-06T01:49:56;3.33;;;2.22;;
84315;SDS011;74496;52.236;5.164;2024-01-06T01:52:23;4.35;;;2.00;;
84315;SDS011;74496;52.236;5.164;2024-01-06T01:54:50;1.95;;;1.80;;
84315;SDS011;74496;52.236;5.164;2024-01-06T01:57:19;2.75;;;2.25;;
84315;SDS011;74496;52.236;5.164;2024-01-06T01:59:51;2.43;;;1.80;;
84315;SDS011;74496;52.236;5.164;2024-01-06T02:02:19;2.38;;;1.88;;
84315;SDS011;74496;52.236;5.164;2024-01-06T02:04:48;2.05;;;1.75;;
84315;SDS011;74496;52.236;5.164;2024-01-06T02:07:16;3.72;;;2.10;;
84315;SDS011;74496;52.236;5.164;2024-01-06T02:09:43;5.15;;;2.15;;
84315;SDS011;74496;52.236;5.164;2024-01-06T02:12:09;2.60;;;2.27;;
84315;SDS011;74496;52.236;5.164;2024-01-06T02:14:36;6.85;;;2.08;;
84315;SDS011;74496;52.236;5.164;2024-01-06T02:17:04;2.75;;;2.13;;
84315;SDS011;74496;52.236;5.164;2024-01-06T02:19:31;2.70;;;2.50;;
84315;SDS011;74496;52.236;5.164;2024-01-06T02:21:59;3.20;;;2.40;;
84315;SDS011;74496;52.236;5.164;2024-01-06T02:24:26;4.13;;;2.37;;
84315;SDS011;74496;52.236;5.164;2024-01-06T02:26:52;3.50;;;2.13;;
84315;SDS011;74496;52.236;5.164;2024-01-06T02:29:19;2.60;;;2.22;;
84315;SDS011;74496;52.236;5.164;2024-01-06T02:31:46;4.57;;;2.22;;
84315;SDS011;74496;52.236;5.164;2024-01-06T02:34:13;2.75;;;2.15;;
84315;SDS011;74496;52.236;5.164;2024-01-06T02:36:39;2.73;;;2.40;;
84315;SDS011;74496;52.236;5.164;2024-01-06T02:39:07;5.78;;;2.63;;
84315;SDS011;74496;52.236;5.164;2024-01-06T02:41:34;2.40;;;2.20;;
84315;SDS011;74496;52.236;5.164;2024-01-06T02:44:02;2.97;;;2.38;;
84315;SDS011;74496;52.236;5.164;2024-01-06T02:46:29;4.78;;;2.72;;
84315;SDS011;74496;52.236;5.164;2024-01-06T02:48:56;5.57;;;2.50;;
84315;SDS011;74496;52.236;5.164;2024-01-06T02:51:23;3.05;;;2.28;;
84315;SDS011;74496;52.236;5.164;2024-01-06T02:53:52;2.40;;;2.20;;
84315;SDS011;74496;52.236;5.164;2024-01-06T02:56:20;4.32;;;2.40;;
84315;SDS011;74496;52.236;5.164;2024-01-06T02:58:46;4.05;;;2.92;;
84315;SDS011;74496;52.236;5.164;2024-01-06T03:01:13;3.40;;;2.90;;
84315;SDS011;74496;52.236;5.164;2024-01-06T03:03:40;3.83;;;3.08;;
84315;SDS011;74496;52.236;5.164;2024-01-06T03:06:07;5.75;;;3.15;;
84315;SDS011;74496;52.236;5.164;2024-01-06T03:08:33;4.63;;;3.15;;
84315;SDS011;74496;52.236;5.164;2024-01-06T03:10:59;3.17;;;2.95;;
84315;SDS011;74496;52.236;5.164;2024-01-06T03:13:30;3.67;;;3.13;;
84315;SDS011;74496;52.236;5.164;2024-01-06T03:15:57;3.05;;;2.78;;
84315;SDS011;74496;52.236;5.164;2024-01-06T03:18:29;3.97;;;3.20;;
84315;SDS011;74496;52.236;5.164;2024-01-06T03:20:56;4.85;;;3.13;;
84315;SDS011;74496;52.236;5.164;2024-01-06T03:23:22;3.95;;;3.22;;
84315;SDS011;74496;52.236;5.164;2024-01-06T03:25:49;6.43;;;3.60;;
84315;SDS011;74496;52.236;5.164;2024-01-06T03:28:16;6.07;;;3.70;;
84315;SDS011;74496;52.236;5.164;2024-01-06T03:30:44;6.03;;;3.55;;
84315;SDS011;74496;52.236;5.164;2024-01-06T03:33:10;4.45;;;3.30;;
84315;SDS011;74496;52.236;5.164;2024-01-06T03:35:38;3.78;;;3.47;;
84315;SDS011;74496;52.236;5.164;2024-01-06T03:38:04;7.87;;;3.20;;
84315;SDS011;74496;52.236;5.164;2024-01-06T03:40:31;5.20;;;3.40;;
84315;SDS011;74496;52.236;5.164;2024-01-06T03:42:58;5.72;;;3.95;;
84315;SDS011;74496;52.236;5.164;2024-01-06T03:45:26;8.15;;;4.70;;
84315;SDS011;74496;52.236;5.164;2024-01-06T03:47:54;7.70;;;3.95;;
84315;SDS011;74496;52.236;5.164;2024-01-06T03:50:21;4.23;;;3.67;;
84315;SDS011;74496;52.236;5.164;2024-01-06T03:52:48;7.65;;;4.00;;
84315;SDS011;74496;52.236;5.164;2024-01-06T03:55:15;4.22;;;3.85;;
84315;SDS011;74496;52.236;5.164;2024-01-06T03:57:41;5.28;;;3.80;;
84315;SDS011;74496;52.236;5.164;2024-01-06T04:00:11;4.25;;;3.65;;
84315;SDS011;74496;52.236;5.164;2024-01-06T04:02:38;4.17;;;3.43;;
84315;SDS011;74496;52.236;5.164;2024-01-06T04:05:07;7.15;;;4.07;;
84315;SDS011;74496;52.236;5.164;2024-01-06T04:07:33;4.53;;;3.80;;
84315;SDS011;74496;52.236;5.164;2024-01-06T04:10:00;8.23;;;3.92;;
84315;SDS011;74496;52.236;5.164;2024-01-06T04:12:27;6.90;;;4.20;;
84315;SDS011;74496;52.236;5.164;2024-01-06T04:14:53;7.10;;;4.00;;
84315;SDS011;74496;52.236;5.164;2024-01-06T04:17:20;3.72;;;3.38;;
84315;SDS011;74496;52.236;5.164;2024-01-06T04:19:47;9.02;;;4.10;;
84315;SDS011;74496;52.236;5.164;2024-01-06T04:22:15;5.00;;;3.88;;
84315;SDS011;74496;52.236;5.164;2024-01-06T04:24:41;4.75;;;3.95;;
84315;SDS011;74496;52.236;5.164;2024-01-06T04:27:08;6.07;;;4.20;;
84315;SDS011;74496;52.236;5.164;2024-01-06T04:29:35;4.10;;;3.72;;
84315;SDS011;74496;52.236;5.164;2024-01-06T04:32:02;5.57;;;4.07;;
84315;SDS011;74496;52.236;5.164;2024-01-06T04:34:29;4.45;;;3.90;;
84315;SDS011;74496;52.236;5.164;2024-01-06T04:36:55;4.93;;;3.90;;
84315;SDS011;74496;52.236;5.164;2024-01-06T04:39:23;4.07;;;3.67;;
84315;SDS011;74496;52.236;5.164;2024-01-06T04:41:50;5.93;;;3.88;;
84315;SDS011;74496;52.236;5.164;2024-01-06T04:44:19;4.32;;;3.92;;
84315;SDS011;74496;52.236;5.164;2024-01-06T04:46:47;4.43;;;3.92;;
84315;SDS011;74496;52.236;5.164;2024-01-06T04:49:14;4.90;;;4.18;;
84315;SDS011;74496;52.236;5.164;2024-01-06T04:51:40;6.13;;;3.87;;
84315;SDS011;74496;52.236;5.164;2024-01-06T04:54:08;4.30;;;3.90;;
84315;SDS011;74496;52.236;5.164;2024-01-06T04:56:36;4.57;;;4.10;;
84315;SDS011;74496;52.236;5.164;2024-01-06T04:59:03;9.68;;;4.53;;
84315;SDS011;74496;52.236;5.164;2024-01-06T05:01:30;8.73;;;3.80;;
84315;SDS011;74496;52.236;5.164;2024-01-06T05:03:57;5.13;;;3.50;;
84315;SDS011;74496;52.236;5.164;2024-01-06T05:06:24;4.10;;;3.22;;
84315;SDS011;74496;52.236;5.164;2024-01-06T05:08:51;6.68;;;3.10;;
84315;SDS011;74496;52.236;5.164;2024-01-06T05:11:17;3.05;;;2.58;;
84315;SDS011;74496;52.236;5.164;2024-01-06T05:13:45;5.38;;;2.53;;
84315;SDS011;74496;52.236;5.164;2024-01-06T05:16:12;2.63;;;2.10;;
84315;SDS011;74496;52.236;5.164;2024-01-06T05:18:39;1.75;;;1.65;;
84315;SDS011;74496;52.236;5.164;2024-01-06T05:21:05;4.53;;;2.22;;
84315;SDS011;74496;52.236;5.164;2024-01-06T05:23:32;2.92;;;2.40;;
84315;SDS011;74496;52.236;5.164;2024-01-06T05:26:01;3.70;;;3.15;;
84315;SDS011;74496;52.236;5.164;2024-01-06T05:28:28;4.77;;;3.27;;
84315;SDS011;74496;52.236;5.164;2024-01-06T05:30:56;3.78;;;3.22;;
84315;SDS011;74496;52.236;5.164;2024-01-06T05:33:22;4.85;;;3.85;;
84315;SDS011;74496;52.236;5.164;2024-01-06T05:35:49;6.03;;;4.00;;
84315;SDS011;74496;52.236;5.164;2024-01-06T05:38:16;5.13;;;3.90;;
84315;SDS011;74496;52.236;5.164;2024-01-06T05:40:43;9.13;;;3.17;;
84315;SDS011;74496;52.236;5.164;2024-01-06T05:43:09;4.55;;;3.08;;
84315;SDS011;74496;52.236;5.164;2024-01-06T05:45:36;6.85;;;3.30;;
84315;SDS011;74496;52.236;5.164;2024-01-06T05:48:09;4.43;;;3.83;;
84315;SDS011;74496;52.236;5.164;2024-01-06T05:50:36;5.45;;;3.35;;
84315;SDS011;74496;52.236;5.164;2024-01-06T05:53:03;6.57;;;3.30;;
84315;SDS011;74496;52.236;5.164;2024-01-06T05:55:30;3.70;;;3.40;;
84315;SDS011;74496;52.236;5.164;2024-01-06T05:57:56;4.82;;;3.60;;
84315;SDS011;74496;52.236;5.164;2024-01-06T06:00:23;3.42;;;3.08;;
84315;SDS011;74496;52.236;5.164;2024-01-06T06:02:50;3.05;;;2.85;;
84315;SDS011;74496;52.236;5.164;2024-01-06T06:05:18;5.87;;;2.70;;
84315;SDS011;74496;52.236;5.164;2024-01-06T06:07:45;3.55;;;2.97;;
84315;SDS011;74496;52.236;5.164;2024-01-06T06:10:12;3.00;;;2.70;;
84315;SDS011;74496;52.236;5.164;2024-01-06T06:12:41;2.63;;;2.42;;
84315;SDS011;74496;52.236;5.164;2024-01-06T06:15:08;2.55;;;2.13;;
84315;SDS011;74496;52.236;5.164;2024-01-06T06:17:35;3.05;;;2.72;;
84315;SDS011;74496;52.236;5.164;2024-01-06T06:20:02;4.70;;;2.42;;
84315;SDS011;74496;52.236;5.164;2024-01-06T06:22:33;5.25;;;2.05;;
84315;SDS011;74496;52.236;5.164;2024-01-06T06:25:00;4.88;;;2.63;;
84315;SDS011;74496;52.236;5.164;2024-01-06T06:27:26;4.97;;;2.40;;
84315;SDS011;74496;52.236;5.164;2024-01-06T06:29:54;6.47;;;2.28;;
84315;SDS011;74496;52.236;5.164;2024-01-06T06:32:21;5.47;;;2.42;;
84315;SDS011;74496;52.236;5.164;2024-01-06T06:34:50;5.30;;;2.35;;
84315;SDS011;74496;52.236;5.164;2024-01-06T06:37:17;4.38;;;2.78;;
84315;SDS011;74496;52.236;5.164;2024-01-06T06:39:46;3.85;;;2.53;;
84315;SDS011;74496;52.236;5.164;2024-01-06T06:42:12;4.65;;;2.78;;
84315;SDS011;74496;52.236;5.164;2024-01-06T06:44:40;4.88;;;2.72;;
84315;SDS011;74496;52.236;5.164;2024-01-06T06:47:07;3.88;;;3.28;;
84315;SDS011;74496;52.236;5.164;2024-01-06T06:49:34;3.10;;;2.78;;
84315;SDS011;74496;52.236;5.164;2024-01-06T06:52:01;3.08;;;2.78;;
84315;SDS011;74496;52.236;5.164;2024-01-06T06:54:29;3.40;;;3.10;;
84315;SDS011;74496;52.236;5.164;2024-01-06T06:56:57;4.20;;;3.03;;
84315;SDS011;74496;52.236;5.164;2024-01-06T06:59:24;5.03;;;3.88;;
84315;SDS011;74496;52.236;5.164;2024-01-06T07:01:50;6.70;;;3.60;;
84315;SDS011;74496;52.236;5.164;2024-01-06T07:04:17;4.43;;;3.60;;
84315;SDS011;74496;52.236;5.164;2024-01-06T07:06:44;4.53;;;3.80;;
84315;SDS011;74496;52.236;5.164;2024-01-06T07:09:11;5.07;;;3.63;;
84315;SDS011;74496;52.236;5.164;2024-01-06T07:11:38;8.40;;;3.80;;
84315;SDS011;74496;52.236;5.164;2024-01-06T07:14:06;8.43;;;3.70;;
84315;SDS011;74496;52.236;5.164;2024-01-06T07:16:33;4.00;;;3.63;;
84315;SDS011;74496;52.236;5.164;2024-01-06T07:19:00;3.75;;;3.45;;
84315;SDS011;74496;52.236;5.164;2024-01-06T07:21:26;5.05;;;3.72;;
84315;SDS011;74496;52.236;5.164;2024-01-06T07:23:53;5.82;;;3.35;;
84315;SDS011;74496;52.236;5.164;2024-01-06T07:26:20;4.28;;;3.78;;
84315;SDS011;74496;52.236;5.164;2024-01-06T07:28:46;6.38;;;3.47;;
84315;SDS011;74496;52.236;5.164;2024-01-06T07:31:14;3.65;;;3.33;;
84315;SDS011;74496;52.236;5.164;2024-01-06T07:33:42;4.00;;;3.28;;
84315;SDS011;74496;52.236;5.164;2024-01-06T07:36:09;3.95;;;3.10;;
84315;SDS011;74496;52.236;5.164;2024-01-06T07:38:36;5.45;;;3.20;;
84315;SDS011;74496;52.236;5.164;2024-01-06T07:41:02;5.28;;;2.92;;
84315;SDS011;74496;52.236;5.164;2024-01-06T07:43:30;5.15;;;3.00;;
84315;SDS011;74496;52.236;5.164;2024-01-06T07:45:56;6.15;;;2.78;;
84315;SDS011;74496;52.236;5.164;2024-01-06T07:48:24;6.30;;;2.95;;
84315;SDS011;74496;52.236;5.164;2024-01-06T07:50:51;2.60;;;2.40;;
84315;SDS011;74496;52.236;5.164;2024-01-06T07:53:18;5.35;;;2.83;;
84315;SDS011;74496;52.236;5.164;2024-01-06T07:55:45;3.93;;;2.73;;
84315;SDS011;74496;52.236;5.164;2024-01-06T07:58:12;4.22;;;2.80;;
84315;SDS011;74496;52.236;5.164;2024-01-06T08:00:39;3.65;;;3.08;;
84315;SDS011;74496;52.236;5.164;2024-01-06T08:03:06;5.10;;;2.88;;
84315;SDS011;74496;52.236;5.164;2024-01-06T08:05:34;2.53;;;2.33;;
84315;SDS011;74496;52.236;5.164;2024-01-06T08:08:00;4.40;;;3.05;;
84315;SDS011;74496;52.236;5.164;2024-01-06T08:10:27;4.90;;;2.78;;
84315;SDS011;74496;52.236;5.164;2024-01-06T08:12:54;2.65;;;2.40;;
84315;SDS011;74496;52.236;5.164;2024-01-06T08:15:21;6.25;;;2.53;;
84315;SDS011;74496;52.236;5.164;2024-01-06T08:17:48;4.47;;;2.95;;
84315;SDS011;74496;52.236;5.164;2024-01-06T08:20:14;3.10;;;2.80;;
84315;SDS011;74496;52.236;5.164;2024-01-06T08:22:42;6.72;;;2.78;;
84315;SDS011;74496;52.236;5.164;2024-01-06T08:25:09;3.55;;;2.78;;
84315;SDS011;74496;52.236;5.164;2024-01-06T08:27:36;8.30;;;2.80;;
84315;SDS011;74496;52.236;5.164;2024-01-06T08:30:03;6.18;;;2.92;;
84315;SDS011;74496;52.236;5.164;2024-01-06T08:32:31;4.57;;;2.93;;
84315;SDS011;74496;52.236;5.164;2024-01-06T08:34:58;6.20;;;3.10;;
84315;SDS011;74496;52.236;5.164;2024-01-06T08:37:24;6.25;;;3.13;;
84315;SDS011;74496;52.236;5.164;2024-01-06T08:39:54;5.82;;;2.72;;
84315;SDS011;74496;52.236;5.164;2024-01-06T08:42:21;3.97;;;2.70;;
84315;SDS011;74496;52.236;5.164;2024-01-06T08:44:48;6.60;;;2.97;;
84315;SDS011;74496;52.236;5.164;2024-01-06T08:47:15;5.28;;;2.70;;
84315;SDS011;74496;52.236;5.164;2024-01-06T08:49:42;5.38;;;2.22;;
84315;SDS011;74496;52.236;5.164;2024-01-06T08:52:08;6.78;;;2.15;;
84315;SDS011;74496;52.236;5.164;2024-01-06T08:54:35;4.10;;;2.40;;
84315;SDS011;74496;52.236;5.164;2024-01-06T08:57:03;3.10;;;2.63;;
84315;SDS011;74496;52.236;5.164;2024-01-06T08:59:31;4.13;;;2.70;;
84315;SDS011;74496;52.236;5.164;2024-01-06T09:01:58;3.47;;;2.58;;
84315;SDS011;74496;52.236;5.164;2024-01-06T09:04:25;10.20;;;2.58;;
84315;SDS011;74496;52.236;5.164;2024-01-06T09:06:51;5.05;;;2.47;;
84315;SDS011;74496;52.236;5.164;2024-01-06T09:09:19;2.87;;;2.43;;
84315;SDS011;74496;52.236;5.164;2024-01-06T09:11:45;5.10;;;2.60;;
84315;SDS011;74496;52.236;5.164;2024-01-06T09:14:13;4.53;;;2.53;;
84315;SDS011;74496;52.236;5.164;2024-01-06T09:16:41;3.47;;;2.67;;
84315;SDS011;74496;52.236;5.164;2024-01-06T09:19:08;5.00;;;3.10;;
84315;SDS011;74496;52.236;5.164;2024-01-06T09:21:37;7.20;;;2.73;;
84315;SDS011;74496;52.236;5.164;2024-01-06T09:24:03;8.50;;;2.75;;
84315;SDS011;74496;52.236;5.164;2024-01-06T09:26:31;7.03;;;2.80;;
84315;SDS011;74496;52.236;5.164;2024-01-06T09:28:59;4.75;;;2.80;;
84315;SDS011;74496;52.236;5.164;2024-01-06T09:31:28;4.15;;;2.78;;
84315;SDS011;74496;52.236;5.164;2024-01-06T09:33:55;6.90;;;2.65;;
84315;SDS011;74496;52.236;5.164;2024-01-06T09:36:21;4.95;;;2.97;;
84315;SDS011;74496;52.236;5.164;2024-01-06T09:38:50;6.43;;;3.60;;
84315;SDS011;74496;52.236;5.164;2024-01-06T09:41:17;4.15;;;2.80;;
84315;SDS011;74496;52.236;5.164;2024-01-06T09:43:47;5.72;;;3.00;;
84315;SDS011;74496;52.236;5.164;2024-01-06T09:46:15;3.93;;;2.90;;
84315;SDS011;74496;52.236;5.164;2024-01-06T09:48:49;4.53;;;3.08;;
84315;SDS011;74496;52.236;5.164;2024-01-06T09:51:19;4.95;;;3.80;;
84315;SDS011;74496;52.236;5.164;2024-01-06T09:53:48;6.35;;;2.85;;
84315;SDS011;74496;52.236;5.164;2024-01-06T09:56:16;4.78;;;3.20;;
84315;SDS011;74496;52.236;5.164;2024-01-06T09:58:43;6.40;;;3.70;;
84315;SDS011;74496;52.236;5.164;2024-01-06T10:01:10;3.53;;;3.00;;
84315;SDS011;74496;52.236;5.164;2024-01-06T10:03:39;4.07;;;2.67;;
84315;SDS011;74496;52.236;5.164;2024-01-06T10:06:07;9.45;;;2.78;;
84315;SDS011;74496;52.236;5.164;2024-01-06T10:08:35;4.07;;;2.47;;
84315;SDS011;74496;52.236;5.164;2024-01-06T10:11:02;3.08;;;2.85;;
84315;SDS011;74496;52.236;5.164;2024-01-06T10:13:29;6.07;;;3.05;;
84315;SDS011;74496;52.236;5.164;2024-01-06T10:15:55;2.90;;;2.60;;
84315;SDS011;74496;52.236;5.164;2024-01-06T10:18:22;5.28;;;3.20;;
84315;SDS011;74496;52.236;5.164;2024-01-06T10:20:51;2.70;;;2.50;;
84315;SDS011;74496;52.236;5.164;2024-01-06T10:23:20;3.47;;;2.80;;
84315;SDS011;74496;52.236;5.164;2024-01-06T10:25:51;3.78;;;2.95;;
84315;SDS011;74496;52.236;5.164;2024-01-06T10:28:18;4.03;;;2.88;;
84315;SDS011;74496;52.236;5.164;2024-01-06T10:30:47;3.50;;;2.55;;
84315;SDS011;74496;52.236;5.164;2024-01-06T10:33:14;5.45;;;3.10;;
84315;SDS011;74496;52.236;5.164;2024-01-06T10:35:40;4.10;;;2.80;;
84315;SDS011;74496;52.236;5.164;2024-01-06T10:38:09;3.15;;;2.58;;
84315;SDS011;74496;52.236;5.164;2024-01-06T10:40:38;7.07;;;3.08;;
84315;SDS011;74496;52.236;5.164;2024-01-06T10:43:04;3.38;;;3.03;;
84315;SDS011;74496;52.236;5.164;2024-01-06T10:45:32;3.35;;;3.05;;
84315;SDS011;74496;52.236;5.164;2024-01-06T10:47:59;3.73;;;2.70;;
84315;SDS011;74496;52.236;5.164;2024-01-06T10:50:26;4.18;;;2.47;;
84315;SDS011;74496;52.236;5.164;2024-01-06T10:52:55;3.03;;;2.38;;
84315;SDS011;74496;52.236;5.164;2024-01-06T10:55:23;6.32;;;2.88;;
84315;SDS011;74496;52.236;5.164;2024-01-06T10:57:54;4.88;;;2.90;;
84315;SDS011;74496;52.236;5.164;2024-01-06T11:00:24;2.87;;;2.50;;
84315;SDS011;74496;52.236;5.164;2024-01-06T11:02:50;3.38;;;2.75;;
84315;SDS011;74496;52.236;5.164;2024-01-06T11:05:19;5.25;;;3.03;;
84315;SDS011;74496;52.236;5.164;2024-01-06T11:07:46;3.95;;;3.25;;
84315;SDS011;74496;52.236;5.164;2024-01-06T11:10:17;6.63;;;2.92;;
84315;SDS011;74496;52.236;5.164;2024-01-06T11:12:44;5.10;;;2.73;;
84315;SDS011;74496;52.236;5.164;2024-01-06T11:15:20;7.38;;;2.80;;
84315;SDS011;74496;52.236;5.164;2024-01-06T11:18:05;3.28;;;3.03;;
84315;SDS011;74496;52.236;5.164;2024-01-06T11:20:32;3.63;;;2.90;;
84315;SDS011;74496;52.236;5.164;2024-01-06T11:23:16;6.57;;;3.08;;
84315;SDS011;74496;52.236;5.164;2024-01-06T11:25:45;4.00;;;3.47;;
84315;SDS011;74496;52.236;5.164;2024-01-06T11:28:11;5.65;;;2.90;;
84315;SDS011;74496;52.236;5.164;2024-01-06T11:30:40;6.70;;;3.53;;
84315;SDS011;74496;52.236;5.164;2024-01-06T11:33:07;3.80;;;3.30;;
84315;SDS011;74496;52.236;5.164;2024-01-06T11:35:37;7.38;;;3.40;;
84315;SDS011;74496;52.236;5.164;2024-01-06T11:38:06;6.85;;;3.33;;
84315;SDS011;74496;52.236;5.164;2024-01-06T11:40:33;3.78;;;2.70;;
84315;SDS011;74496;52.236;5.164;2024-01-06T11:43:02;8.50;;;2.90;;
84315;SDS011;74496;52.236;5.164;2024-01-06T11:45:30;5.10;;;3.20;;
84315;SDS011;74496;52.236;5.164;2024-01-06T11:48:00;5.50;;;2.85;;
84315;SDS011;74496;52.236;5.164;2024-01-06T11:50:28;5.63;;;2.87;;
84315;SDS011;74496;52.236;5.164;2024-01-06T11:52:56;4.10;;;2.90;;
84315;SDS011;74496;52.236;5.164;2024-01-06T11:55:23;6.13;;;3.40;;
84315;SDS011;74496;52.236;5.164;2024-01-06T11:57:51;3.42;;;3.03;;
84315;SDS011;74496;52.236;5.164;2024-01-06T12:00:17;5.60;;;3.38;;
84315;SDS011;74496;52.236;5.164;2024-01-06T12:02:45;5.05;;;2.95;;
84315;SDS011;74496;52.236;5.164;2024-01-06T12:05:13;6.35;;;3.00;;
84315;SDS011;74496;52.236;5.164;2024-01-06T12:07:43;3.30;;;2.70;;
84315;SDS011;74496;52.236;5.164;2024-01-06T12:10:10;7.60;;;2.97;;
84315;SDS011;74496;52.236;5.164;2024-01-06T12:12:40;6.78;;;3.00;;
84315;SDS011;74496;52.236;5.164;2024-01-06T12:15:07;4.07;;;3.10;;
84315;SDS011;74496;52.236;5.164;2024-01-06T12:17:35;3.47;;;2.63;;
84315;SDS011;74496;52.236;5.164;2024-01-06T12:20:01;6.57;;;3.05;;
84315;SDS011;74496;52.236;5.164;2024-01-06T12:22:30;3.72;;;2.70;;
84315;SDS011;74496;52.236;5.164;2024-01-06T12:24:59;8.18;;;3.55;;
84315;SDS011;74496;52.236;5.164;2024-01-06T12:27:26;3.30;;;3.00;;
84315;SDS011;74496;52.236;5.164;2024-01-06T12:29:52;11.48;;;3.75;;
84315;SDS011;74496;52.236;5.164;2024-01-06T12:32:20;5.45;;;3.30;;
84315;SDS011;74496;52.236;5.164;2024-01-06T12:34:46;4.28;;;3.65;;
84315;SDS011;74496;52.236;5.164;2024-01-06T12:37:13;6.00;;;4.32;;
84315;SDS011;74496;52.236;5.164;2024-01-06T12:39:41;6.07;;;3.97;;
84315;SDS011;74496;52.236;5.164;2024-01-06T12:42:10;7.43;;;4.07;;
84315;SDS011;74496;52.236;5.164;2024-01-06T12:44:37;6.78;;;3.63;;
84315;SDS011;74496;52.236;5.164;2024-01-06T12:47:05;5.00;;;3.75;;
84315;SDS011;74496;52.236;5.164;2024-01-06T12:49:31;7.13;;;3.70;;
84315;SDS011;74496;52.236;5.164;2024-01-06T12:51:58;4.53;;;3.70;;
84315;SDS011;74496;52.236;5.164;2024-01-06T12:54:25;4.85;;;4.13;;
84315;SDS011;74496;52.236;5.164;2024-01-06T12:56:53;6.18;;;4.10;;
84315;SDS011;74496;52.236;5.164;2024-01-06T12:59:20;6.18;;;3.38;;
84315;SDS011;74496;52.236;5.164;2024-01-06T13:01:46;7.15;;;3.95;;
84315;SDS011;74496;52.236;5.164;2024-01-06T13:04:15;6.93;;;3.55;;
84315;SDS011;74496;52.236;5.164;2024-01-06T13:06:43;5.85;;;3.72;;
84315;SDS011;74496;52.236;5.164;2024-01-06T13:09:09;3.90;;;3.50;;
84315;SDS011;74496;52.236;5.164;2024-01-06T13:11:41;7.07;;;3.75;;
84315;SDS011;74496;52.236;5.164;2024-01-06T13:14:12;4.10;;;3.70;;
84315;SDS011;74496;52.236;5.164;2024-01-06T13:16:39;7.07;;;3.55;;
84315;SDS011;74496;52.236;5.164;2024-01-06T13:19:05;5.68;;;3.47;;
84315;SDS011;74496;52.236;5.164;2024-01-06T13:21:32;4.30;;;3.38;;
84315;SDS011;74496;52.236;5.164;2024-01-06T13:24:05;5.30;;;3.72;;
84315;SDS011;74496;52.236;5.164;2024-01-06T13:26:32;8.05;;;3.50;;
84315;SDS011;74496;52.236;5.164;2024-01-06T13:29:00;4.17;;;3.60;;
84315;SDS011;74496;52.236;5.164;2024-01-06T13:31:28;6.13;;;3.55;;
84315;SDS011;74496;52.236;5.164;2024-01-06T13:33:56;5.55;;;3.67;;
84315;SDS011;74496;52.236;5.164;2024-01-06T13:36:22;6.80;;;3.65;;
84315;SDS011;74496;52.236;5.164;2024-01-06T13:38:50;4.32;;;3.33;;
84315;SDS011;74496;52.236;5.164;2024-01-06T13:41:16;5.07;;;3.75;;
84315;SDS011;74496;52.236;5.164;2024-01-06T13:43:43;5.68;;;4.18;;
84315;SDS011;74496;52.236;5.164;2024-01-06T13:46:10;5.43;;;3.95;;
84315;SDS011;74496;52.236;5.164;2024-01-06T13:48:40;6.18;;;3.60;;
84315;SDS011;74496;52.236;5.164;2024-01-06T13:51:07;6.38;;;4.00;;
84315;SDS011;74496;52.236;5.164;2024-01-06T13:53:34;4.33;;;3.47;;
84315;SDS011;74496;52.236;5.164;2024-01-06T13:56:00;5.57;;;3.80;;
84315;SDS011;74496;52.236;5.164;2024-01-06T13:58:27;5.03;;;3.80;;
84315;SDS011;74496;52.236;5.164;2024-01-06T14:00:54;8.55;;;3.65;;
84315;SDS011;74496;52.236;5.164;2024-01-06T14:03:21;6.45;;;3.75;;
84315;SDS011;74496;52.236;5.164;2024-01-06T14:05:49;7.10;;;3.90;;
84315;SDS011;74496;52.236;5.164;2024-01-06T14:08:18;7.93;;;4.00;;
84315;SDS011;74496;52.236;5.164;2024-01-06T14:10:45;5.75;;;3.70;;
84315;SDS011;74496;52.236;5.164;2024-01-06T14:13:11;8.23;;;3.63;;
84315;SDS011;74496;52.236;5.164;2024-01-06T14:15:38;5.63;;;4.00;;
84315;SDS011;74496;52.236;5.164;2024-01-06T14:18:05;5.85;;;3.72;;
84315;SDS011;74496;52.236;5.164;2024-01-06T14:20:35;5.25;;;3.42;;
84315;SDS011;74496;52.236;5.164;2024-01-06T14:23:05;5.45;;;3.92;;
84315;SDS011;74496;52.236;5.164;2024-01-06T14:25:31;6.35;;;3.65;;
84315;SDS011;74496;52.236;5.164;2024-01-06T14:27:59;5.18;;;3.50;;
84315;SDS011;74496;52.236;5.164;2024-01-06T14:30:26;6.45;;;3.83;;
84315;SDS011;74496;52.236;5.164;2024-01-06T14:32:54;5.03;;;3.72;;
84315;SDS011;74496;52.236;5.164;2024-01-06T14:35:21;4.18;;;3.40;;
84315;SDS011;74496;52.236;5.164;2024-01-06T14:37:47;6.50;;;4.05;;
84315;SDS011;74496;52.236;5.164;2024-01-06T14:40:17;4.70;;;4.18;;
84315;SDS011;74496;52.236;5.164;2024-01-06T14:42:45;8.98;;;3.92;;
84315;SDS011;74496;52.236;5.164;2024-01-06T14:45:12;5.88;;;4.20;;
84315;SDS011;74496;52.236;5.164;2024-01-06T14:47:43;5.13;;;4.43;;
84315;SDS011;74496;52.236;5.164;2024-01-06T14:50:10;5.78;;;4.60;;